createdAt,value
2022-07-27T00:01:10.776Z,10.35
2022-07-27T00:03:38.665Z,10.10
2022-07-27T00:06:06.207Z,10.57
2022-07-27T00:08:33.868Z,10.20
2022-07-27T00:11:01.383Z,11.18
2022-07-27T00:13:28.879Z,11.38
2022-07-27T00:15:56.507Z,10.68
2022-07-27T00:18:24.138Z,11.18
2022-07-27T00:20:51.839Z,10.82
2022-07-27T00:23:19.277Z,11.38
2022-07-27T00:25:46.816Z,10.48
2022-07-27T00:28:14.280Z,11.10
2022-07-27T00:30:41.817Z,11.02
2022-07-27T00:33:09.293Z,11.13
2022-07-27T00:35:36.833Z,11.45
2022-07-27T00:38:04.373Z,11.50
2022-07-27T00:40:31.900Z,10.93
2022-07-27T00:42:59.500Z,10.90
2022-07-27T00:45:27.030Z,10.75
2022-07-27T00:47:55.238Z,11.00
2022-07-27T00:50:22.895Z,11.32
2022-07-27T00:52:50.438Z,11.13
2022-07-27T00:55:17.946Z,11.10
2022-07-27T00:57:59.165Z,12.18
2022-07-27T01:00:29.947Z,10.63
2022-07-27T01:02:57.843Z,10.57
2022-07-27T01:05:36.135Z,10.98
2022-07-27T01:08:06.966Z,11.35
2022-07-27T01:10:34.522Z,11.45
2022-07-27T01:13:02.505Z,12.32
2022-07-27T01:15:30.992Z,11.13
2022-07-27T01:18:02.738Z,11.43
2022-07-27T01:20:30.195Z,11.77
2022-07-27T01:22:57.804Z,11.43
2022-07-27T01:25:25.337Z,11.57
2022-07-27T01:27:52.853Z,11.63
2022-07-27T01:30:30.576Z,12.25
2022-07-27T01:33:04.738Z,11.98
2022-07-27T01:35:32.693Z,11.93
2022-07-27T01:38:00.223Z,11.93
2022-07-27T01:40:27.753Z,12.50
2022-07-27T01:42:55.267Z,11.80
2022-07-27T01:45:22.852Z,11.52
2022-07-27T01:47:50.413Z,11.30
2022-07-27T01:50:17.986Z,11.68
2022-07-27T01:52:45.485Z,12.35
2022-07-27T01:55:13.412Z,12.20
2022-07-27T01:57:40.903Z,12.30
2022-07-27T02:00:11.034Z,12.18
2022-07-27T02:02:41.989Z,11.90
2022-07-27T02:05:12.156Z,11.98
2022-07-27T02:07:42.736Z,12.32
2022-07-27T02:10:11.156Z,12.50
2022-07-27T02:12:38.764Z,11.82
2022-07-27T02:15:15.015Z,12.60
2022-07-27T02:17:44.031Z,11.98
2022-07-27T02:20:13.111Z,11.95
2022-07-27T02:22:40.590Z,12.77
2022-07-27T02:25:08.896Z,12.25
2022-07-27T02:27:36.548Z,13.77
2022-07-27T02:30:05.972Z,11.68
2022-07-27T02:32:33.644Z,10.82
2022-07-27T02:35:01.188Z,11.52
2022-07-27T02:37:45.906Z,11.80
2022-07-27T02:40:13.509Z,13.00
2022-07-27T02:42:40.964Z,12.27
2022-07-27T02:45:08.632Z,13.00
2022-07-27T02:47:36.247Z,12.82
2022-07-27T02:50:04.183Z,13.57
2022-07-27T02:52:31.692Z,14.63
2022-07-27T02:54:59.413Z,15.20
2022-07-27T02:57:26.949Z,15.88
2022-07-27T02:59:54.465Z,14.60
2022-07-27T03:02:24.832Z,14.00
2022-07-27T03:04:52.349Z,14.13
2022-07-27T03:07:19.956Z,16.30
2022-07-27T03:09:52.355Z,15.05
2022-07-27T03:12:20.184Z,17.90
2022-07-27T03:14:47.703Z,15.32
2022-07-27T03:17:15.194Z,15.38
2022-07-27T03:19:42.707Z,26.40
2022-07-27T03:22:10.368Z,26.00
2022-07-27T03:24:37.877Z,17.77
2022-07-27T03:27:05.371Z,24.83
2022-07-27T03:29:32.901Z,18.10
2022-07-27T03:32:00.555Z,13.88
2022-07-27T03:34:27.993Z,15.38
2022-07-27T03:36:55.555Z,14.95
2022-07-27T03:39:23.072Z,15.27
2022-07-27T03:41:50.533Z,15.43
2022-07-27T03:44:18.024Z,16.13
2022-07-27T03:46:45.511Z,17.00
2022-07-27T03:49:14.468Z,18.15
2022-07-27T03:51:42.551Z,17.70
2022-07-27T03:54:10.338Z,15.15
2022-07-27T03:56:37.801Z,15.63
2022-07-27T03:59:05.552Z,17.85
2022-07-27T04:01:33.142Z,16.83
2022-07-27T04:04:00.630Z,19.70
2022-07-27T04:06:28.617Z,16.67
2022-07-27T04:09:10.539Z,17.40
2022-07-27T04:11:43.544Z,16.48
2022-07-27T04:14:18.465Z,17.50
2022-07-27T04:16:46.170Z,21.77
2022-07-27T04:19:14.205Z,18.33
2022-07-27T04:21:41.881Z,16.63
2022-07-27T04:24:09.627Z,14.15
2022-07-27T04:26:37.174Z,13.30
2022-07-27T04:29:04.693Z,12.93
2022-07-27T04:31:32.293Z,11.90
2022-07-27T04:33:59.848Z,12.80
2022-07-27T04:36:27.704Z,13.10
2022-07-27T04:38:55.341Z,14.20
2022-07-27T04:41:22.843Z,15.95
2022-07-27T04:43:58.825Z,14.45
2022-07-27T04:46:26.674Z,12.88
2022-07-27T04:48:54.262Z,12.60
2022-07-27T04:51:21.855Z,11.30
2022-07-27T04:53:53.671Z,11.57
2022-07-27T04:56:26.077Z,12.73
2022-07-27T04:58:53.653Z,11.68
2022-07-27T05:01:23.050Z,11.77
2022-07-27T05:03:50.793Z,12.35
2022-07-27T05:06:18.428Z,11.65
2022-07-27T05:08:45.946Z,11.75
2022-07-27T05:11:13.558Z,11.07
2022-07-27T05:13:41.416Z,12.13
2022-07-27T05:16:12.125Z,11.60
2022-07-27T05:18:39.956Z,12.77
2022-07-27T05:21:08.411Z,11.95
2022-07-27T05:23:36.331Z,11.25
2022-07-27T05:26:04.077Z,12.05
2022-07-27T05:28:31.536Z,12.60
2022-07-27T05:30:59.088Z,13.77
2022-07-27T05:33:26.543Z,52.78
2022-07-27T05:35:54.092Z,16.33
2022-07-27T05:38:22.334Z,13.73
2022-07-27T05:40:50.065Z,13.20
2022-07-27T05:43:17.516Z,12.57
2022-07-27T05:45:45.103Z,12.63
2022-07-27T05:48:12.667Z,14.10
2022-07-27T05:50:40.129Z,13.63
2022-07-27T05:53:07.798Z,14.55
2022-07-27T05:55:35.293Z,13.65
2022-07-27T05:58:02.807Z,12.85
2022-07-27T06:00:30.293Z,13.25
2022-07-27T06:02:57.835Z,12.63
2022-07-27T06:05:25.296Z,12.40
2022-07-27T06:08:03.581Z,13.35
2022-07-27T06:10:32.598Z,13.25
2022-07-27T06:13:00.823Z,38.60
2022-07-27T06:15:28.363Z,26.85
2022-07-27T06:17:55.924Z,12.27
2022-07-27T06:20:24.437Z,11.95
2022-07-27T06:22:53.314Z,11.77
2022-07-27T06:25:21.307Z,12.45
2022-07-27T06:27:49.034Z,12.20
2022-07-27T06:30:17.349Z,12.15
2022-07-27T06:32:44.950Z,12.30
2022-07-27T06:35:14.495Z,11.40
2022-07-27T06:37:48.437Z,10.60
2022-07-27T06:40:15.970Z,10.75
2022-07-27T06:42:43.430Z,10.73
2022-07-27T06:45:11.332Z,11.07
2022-07-27T06:47:49.956Z,10.88
2022-07-27T06:50:21.119Z,10.23
2022-07-27T06:52:49.769Z,11.82
2022-07-27T06:55:17.852Z,10.93
2022-07-27T06:57:46.528Z,11.50
2022-07-27T07:00:14.732Z,11.00
2022-07-27T07:02:55.578Z,10.57
2022-07-27T07:05:23.391Z,10.52
2022-07-27T07:07:51.001Z,10.65
2022-07-27T07:10:19.011Z,10.95
2022-07-27T07:12:48.574Z,9.70
2022-07-27T07:15:16.856Z,10.98
2022-07-27T07:17:44.416Z,9.30
2022-07-27T07:20:12.123Z,11.15
2022-07-27T07:22:39.702Z,10.50
2022-07-27T07:25:07.280Z,12.48
2022-07-27T07:27:35.022Z,11.90
2022-07-27T07:30:03.198Z,14.23
2022-07-27T07:32:33.500Z,11.35
2022-07-27T07:35:03.670Z,11.60
2022-07-27T07:37:33.946Z,9.80
2022-07-27T07:40:24.905Z,10.48
2022-07-27T07:42:57.215Z,10.23
2022-07-27T07:45:25.125Z,10.43
2022-07-27T07:47:53.098Z,10.63
2022-07-27T07:50:21.429Z,10.60
2022-07-27T07:52:49.591Z,10.00
2022-07-27T07:55:19.760Z,9.50
2022-07-27T07:57:47.342Z,10.57
2022-07-27T08:00:18.635Z,10.82
2022-07-27T08:02:46.207Z,12.45
2022-07-27T08:05:14.330Z,11.27
2022-07-27T08:07:42.344Z,10.10
2022-07-27T08:10:10.377Z,10.60
2022-07-27T08:12:38.337Z,9.20
2022-07-27T08:15:07.972Z,11.77
2022-07-27T08:17:35.627Z,10.95
2022-07-27T08:20:03.297Z,10.80
2022-07-27T08:22:30.820Z,10.93
2022-07-27T08:24:58.307Z,10.95
2022-07-27T08:27:25.791Z,11.63
2022-07-27T08:29:53.198Z,10.38
2022-07-27T08:32:21.408Z,9.65
2022-07-27T08:34:49.146Z,10.60
2022-07-27T08:37:16.743Z,17.90
2022-07-27T08:42:32.603Z,9.93
2022-07-27T08:45:00.112Z,9.98
2022-07-27T08:47:28.211Z,8.27
2022-07-27T08:49:55.681Z,9.73
2022-07-27T08:52:23.216Z,8.15
2022-07-27T08:54:50.837Z,7.28
2022-07-27T08:57:18.358Z,7.70
2022-07-27T08:59:45.846Z,8.35
2022-07-27T09:02:15.249Z,6.68
2022-07-27T09:04:43.007Z,7.28
2022-07-27T09:07:10.450Z,7.60
2022-07-27T09:09:47.481Z,7.53
2022-07-27T09:12:14.968Z,7.72
2022-07-27T09:14:43.419Z,7.05
2022-07-27T09:20:17.445Z,7.53
2022-07-27T09:22:45.816Z,7.78
2022-07-27T09:25:17.573Z,7.78
2022-07-27T09:27:49.549Z,7.85
2022-07-27T09:30:19.373Z,8.30
2022-07-27T09:33:00.465Z,8.32
2022-07-27T09:35:35.167Z,8.55
2022-07-27T09:38:18.132Z,23.02
2022-07-27T09:40:47.136Z,7.70
2022-07-27T09:46:08.106Z,8.20
2022-07-27T09:48:36.316Z,16.73
2022-07-27T09:51:32.967Z,13.95
2022-07-27T09:53:53.631Z,9.52
2022-07-27T09:56:26.913Z,18.15
2022-07-27T09:58:56.662Z,21.83
2022-07-27T10:01:25.383Z,31.33
2022-07-27T10:03:56.934Z,8.00
2022-07-27T10:06:25.488Z,7.65
2022-07-27T10:08:54.708Z,11.73
2022-07-27T10:11:22.977Z,7.32
2022-07-27T10:13:51.273Z,6.80
2022-07-27T10:16:20.539Z,8.48
2022-07-27T10:19:00.934Z,6.05
2022-07-27T10:21:30.002Z,7.13
2022-07-27T10:23:58.794Z,6.43
2022-07-27T10:26:26.281Z,5.57
2022-07-27T10:29:04.366Z,6.00
2022-07-27T10:31:33.734Z,6.32
2022-07-27T10:34:02.718Z,7.68
2022-07-27T10:36:33.068Z,6.63
2022-07-27T10:39:01.791Z,6.32
2022-07-27T10:41:33.207Z,6.47
2022-07-27T10:44:18.434Z,6.60
2022-07-27T10:46:47.220Z,6.93
2022-07-27T10:49:40.125Z,8.18
2022-07-27T10:52:08.465Z,7.15
2022-07-27T10:54:35.856Z,6.72
2022-07-27T10:57:05.311Z,7.78
2022-07-27T11:02:40.759Z,7.18
2022-07-27T11:05:24.868Z,7.47
2022-07-27T11:08:35.703Z,6.80
2022-07-27T11:10:45.261Z,7.10
2022-07-27T11:13:12.828Z,7.15
2022-07-27T11:15:40.332Z,7.13
2022-07-27T11:18:07.801Z,11.50
2022-07-27T11:20:35.465Z,7.00
2022-07-27T11:26:05.799Z,7.88
2022-07-27T11:28:34.456Z,9.13
2022-07-27T11:31:03.828Z,6.15
2022-07-27T11:33:31.659Z,6.07
2022-07-27T11:36:00.844Z,7.93
2022-07-27T11:38:28.359Z,6.72
2022-07-27T11:40:59.894Z,6.68
2022-07-27T11:43:45.386Z,9.32
2022-07-27T11:46:13.611Z,5.90
2022-07-27T11:49:17.622Z,6.53
2022-07-27T11:51:43.075Z,5.82
2022-07-27T11:54:12.152Z,7.57
2022-07-27T11:56:43.400Z,5.93
2022-07-27T11:59:11.051Z,5.40
2022-07-27T12:01:54.200Z,7.65
2022-07-27T12:04:31.831Z,6.63
2022-07-27T12:07:02.473Z,6.55
2022-07-27T12:09:37.887Z,5.72
2022-07-27T12:12:09.793Z,5.80
2022-07-27T12:14:39.193Z,8.23
2022-07-27T12:17:11.167Z,6.03
2022-07-27T12:19:39.141Z,6.20
2022-07-27T12:22:07.183Z,6.57
2022-07-27T12:24:40.309Z,7.13
2022-07-27T12:27:15.360Z,6.32
2022-07-27T12:29:55.835Z,5.78
2022-07-27T12:32:23.740Z,5.18
2022-07-27T12:34:51.202Z,6.63
2022-07-27T12:37:18.869Z,5.50
2022-07-27T12:39:47.141Z,5.70
2022-07-27T12:42:15.356Z,5.20
2022-07-27T12:44:43.978Z,5.47
2022-07-27T12:47:30.872Z,5.30
2022-07-27T12:50:17.566Z,5.35
2022-07-27T12:52:49.130Z,5.40
2022-07-27T12:55:17.747Z,5.10
2022-07-27T12:58:00.791Z,5.20
2022-07-27T13:00:33.819Z,5.32
2022-07-27T13:03:02.861Z,5.05
2022-07-27T13:05:30.976Z,4.82
2022-07-27T13:07:59.169Z,4.80
2022-07-27T13:10:27.624Z,5.57
2022-07-27T13:12:55.136Z,4.80
2022-07-27T13:15:22.691Z,4.63
2022-07-27T13:17:50.287Z,5.68
2022-07-27T13:20:18.454Z,5.93
2022-07-27T13:22:46.875Z,4.90
2022-07-27T13:25:16.216Z,5.72
2022-07-27T13:27:44.920Z,4.90
2022-07-27T13:30:13.522Z,5.47
2022-07-27T13:32:41.653Z,6.13
2022-07-27T13:35:10.242Z,5.90
2022-07-27T13:37:37.732Z,5.53
2022-07-27T13:40:05.726Z,5.28
2022-07-27T13:42:33.346Z,4.93
2022-07-27T13:45:08.599Z,5.45
2022-07-27T13:47:39.843Z,5.50
2022-07-27T13:50:16.777Z,5.32
2022-07-27T13:52:46.084Z,5.95
2022-07-27T13:55:14.580Z,6.10
2022-07-27T13:57:45.086Z,5.35
2022-07-27T14:00:12.838Z,5.75
2022-07-27T14:02:41.894Z,5.30
2022-07-27T14:05:10.185Z,5.40
2022-07-27T14:07:40.794Z,5.95
2022-07-27T14:10:30.621Z,6.00
2022-07-27T14:13:07.803Z,5.82
2022-07-27T14:15:50.426Z,5.97
2022-07-27T14:18:22.361Z,5.40
2022-07-27T14:20:49.954Z,5.40
2022-07-27T14:23:17.499Z,5.28
2022-07-27T14:25:44.986Z,4.88
2022-07-27T14:28:12.503Z,5.40
2022-07-27T14:30:40.085Z,5.88
2022-07-27T14:33:07.628Z,5.03
2022-07-27T14:35:40.252Z,5.22
2022-07-27T14:38:08.221Z,5.35
2022-07-27T14:40:35.747Z,5.65
2022-07-27T14:43:03.287Z,6.55
2022-07-27T14:45:44.468Z,6.38
2022-07-27T14:48:18.689Z,5.60
2022-07-27T14:50:50.801Z,5.85
2022-07-27T14:53:18.243Z,5.13
2022-07-27T14:55:45.699Z,5.35
2022-07-27T14:58:13.182Z,5.28
2022-07-27T15:00:40.959Z,5.53
2022-07-27T15:03:08.566Z,5.22
2022-07-27T15:05:50.176Z,5.28
2022-07-27T15:08:19.498Z,4.95
2022-07-27T15:10:47.467Z,5.00
2022-07-27T15:13:15.137Z,5.07
2022-07-27T15:15:42.893Z,5.30
2022-07-27T15:18:10.402Z,5.20
2022-07-27T15:20:37.846Z,5.07
2022-07-27T15:23:06.730Z,4.95
2022-07-27T15:25:34.428Z,5.00
2022-07-27T15:28:02.228Z,5.10
2022-07-27T15:30:33.781Z,5.00
2022-07-27T15:33:03.915Z,4.57
2022-07-27T15:35:31.354Z,4.75
2022-07-27T15:37:58.835Z,4.70
2022-07-27T15:40:38.500Z,4.82
2022-07-27T15:43:11.395Z,6.05
2022-07-27T15:45:40.374Z,5.15
2022-07-27T15:48:08.736Z,6.30
2022-07-27T15:50:36.818Z,4.97
2022-07-27T15:53:05.093Z,5.50
2022-07-27T15:55:32.947Z,4.65
2022-07-27T15:58:00.479Z,4.78
2022-07-27T16:00:29.016Z,4.70
2022-07-27T16:02:56.801Z,4.90
2022-07-27T16:05:24.733Z,4.65
2022-07-27T16:07:52.247Z,13.43
2022-07-27T16:10:19.760Z,5.63
2022-07-27T16:12:47.188Z,5.53
2022-07-27T16:15:14.682Z,5.40
2022-07-27T16:17:42.277Z,5.10
2022-07-27T16:20:10.105Z,4.57
2022-07-27T16:22:39.554Z,6.47
2022-07-27T16:25:07.465Z,4.30
2022-07-27T16:27:35.022Z,5.05
2022-07-27T16:30:02.672Z,9.77
2022-07-27T16:32:30.232Z,5.00
2022-07-27T16:34:57.800Z,4.90
2022-07-27T16:37:25.666Z,5.25
2022-07-27T16:39:53.146Z,5.38
2022-07-27T16:42:20.595Z,4.60
2022-07-27T16:44:48.139Z,4.90
2022-07-27T16:47:15.824Z,4.68
2022-07-27T16:49:43.636Z,4.60
2022-07-27T16:52:11.356Z,4.18
2022-07-27T16:54:39.753Z,5.25
2022-07-27T16:57:10.678Z,5.10
2022-07-27T16:59:41.741Z,5.70
2022-07-27T17:02:09.430Z,6.60
2022-07-27T17:04:36.999Z,5.70
2022-07-27T17:07:05.373Z,4.97
2022-07-27T17:09:33.045Z,5.80
2022-07-27T17:12:06.497Z,6.07
2022-07-27T17:14:34.338Z,6.43
2022-07-27T17:17:01.814Z,5.30
2022-07-27T17:19:29.339Z,5.63
2022-07-27T17:21:57.051Z,5.70
2022-07-27T17:24:24.676Z,5.75
2022-07-27T17:26:52.125Z,4.97
2022-07-27T17:29:19.755Z,5.13
2022-07-27T17:31:47.382Z,5.55
2022-07-27T17:34:15.041Z,5.47
2022-07-27T17:36:42.844Z,5.45
2022-07-27T17:39:11.291Z,5.38
2022-07-27T17:41:39.357Z,4.72
2022-07-27T17:44:07.050Z,7.47
2022-07-27T17:46:38.810Z,5.60
2022-07-27T17:49:06.946Z,5.30
2022-07-27T17:51:34.790Z,5.72
2022-07-27T17:54:03.907Z,5.50
2022-07-27T17:56:32.675Z,5.50
2022-07-27T17:59:14.302Z,5.10
2022-07-27T18:01:48.649Z,5.65
2022-07-27T18:04:16.601Z,5.65
2022-07-27T18:06:44.387Z,6.47
2022-07-27T18:09:12.196Z,5.65
2022-07-27T18:11:40.070Z,7.20
2022-07-27T18:14:07.540Z,7.13
2022-07-27T18:16:40.208Z,6.30
2022-07-27T18:19:08.537Z,7.25
2022-07-27T18:21:36.684Z,6.53
2022-07-27T18:24:04.417Z,6.20
2022-07-27T18:26:31.965Z,6.28
2022-07-27T18:28:59.865Z,6.93
2022-07-27T18:31:27.454Z,6.68
2022-07-27T18:33:56.122Z,7.15
2022-07-27T18:36:23.750Z,6.88
2022-07-27T18:38:51.242Z,6.63
2022-07-27T18:41:19.227Z,6.70
2022-07-27T18:43:56.745Z,6.70
2022-07-27T18:46:24.578Z,6.65
2022-07-27T18:48:52.245Z,6.22
2022-07-27T18:51:19.972Z,6.93
2022-07-27T18:53:50.014Z,7.38
2022-07-27T18:56:17.572Z,7.25
2022-07-27T18:58:45.172Z,6.80
2022-07-27T19:01:12.715Z,7.63
2022-07-27T19:03:41.901Z,6.55
2022-07-27T19:06:11.420Z,6.88
2022-07-27T19:08:44.429Z,6.60
2022-07-27T19:11:11.961Z,6.72
2022-07-27T19:13:39.480Z,6.78
2022-07-27T19:16:07.388Z,6.88
2022-07-27T19:18:34.931Z,6.93
2022-07-27T19:21:03.323Z,6.47
2022-07-27T19:23:30.800Z,6.20
2022-07-27T19:26:00.668Z,8.52
2022-07-27T19:28:28.669Z,7.05
2022-07-27T19:30:56.262Z,7.43
2022-07-27T19:33:23.954Z,7.25
2022-07-27T19:35:52.589Z,7.10
2022-07-27T19:38:20.184Z,7.28
2022-07-27T19:40:49.934Z,7.10
2022-07-27T19:43:17.528Z,6.68
2022-07-27T19:45:45.090Z,6.90
2022-07-27T19:48:12.980Z,6.43
2022-07-27T19:50:40.785Z,6.78
2022-07-27T19:53:08.956Z,6.47
2022-07-27T19:55:36.523Z,6.47
2022-07-27T19:58:04.317Z,6.30
2022-07-27T20:00:32.021Z,7.20
2022-07-27T20:02:59.551Z,6.18
2022-07-27T20:05:27.208Z,6.18
2022-07-27T20:07:54.695Z,6.20
2022-07-27T20:10:22.556Z,6.13
2022-07-27T20:12:50.004Z,6.70
2022-07-27T20:15:17.566Z,6.65
2022-07-27T20:17:45.051Z,6.20
2022-07-27T20:20:12.823Z,6.10
2022-07-27T20:22:41.126Z,7.35
2022-07-27T20:25:10.639Z,5.88
2022-07-27T20:27:38.965Z,6.00
2022-07-27T20:30:11.331Z,6.95
2022-07-27T20:32:39.086Z,6.82
2022-07-27T20:35:06.792Z,6.00
2022-07-27T20:37:34.357Z,6.25
2022-07-27T20:40:01.818Z,6.40
2022-07-27T20:42:29.319Z,6.28
2022-07-27T20:44:56.805Z,6.60
2022-07-27T20:47:24.483Z,6.07
2022-07-27T20:49:52.011Z,5.95
2022-07-27T20:52:19.789Z,6.43
2022-07-27T20:54:47.297Z,6.53
2022-07-27T20:57:14.779Z,6.22
2022-07-27T20:59:42.288Z,6.35
2022-07-27T21:02:09.818Z,6.07
2022-07-27T21:04:37.321Z,6.35
2022-07-27T21:07:04.804Z,5.90
2022-07-27T21:09:32.342Z,6.20
2022-07-27T21:11:59.948Z,6.13
2022-07-27T21:14:27.492Z,6.30
2022-07-27T21:16:55.050Z,6.55
2022-07-27T21:19:22.800Z,6.35
2022-07-27T21:21:56.181Z,6.30
2022-07-27T21:24:26.772Z,6.78
2022-07-27T21:26:54.295Z,6.53
2022-07-27T21:29:33.334Z,7.60
2022-07-27T21:32:03.212Z,6.55
2022-07-27T21:34:33.412Z,6.43
2022-07-27T21:37:08.429Z,6.60
2022-07-27T21:39:36.156Z,7.25
2022-07-27T21:42:03.706Z,6.68
2022-07-27T21:44:31.398Z,6.22
2022-07-27T21:46:59.009Z,6.75
2022-07-27T21:49:29.857Z,6.50
2022-07-27T21:52:02.327Z,6.50
2022-07-27T21:54:29.871Z,6.68
2022-07-27T21:56:57.433Z,6.68
2022-07-27T21:59:24.982Z,6.75
2022-07-27T22:01:52.488Z,7.10
2022-07-27T22:04:21.317Z,6.38
2022-07-27T22:06:48.854Z,7.07
2022-07-27T22:09:16.364Z,6.80
2022-07-27T22:11:44.008Z,6.60
2022-07-27T22:14:11.770Z,6.97
2022-07-27T22:16:39.906Z,6.88
2022-07-27T22:19:09.808Z,6.18
2022-07-27T22:21:37.376Z,7.00
2022-07-27T22:24:09.293Z,6.35
2022-07-27T22:26:37.029Z,6.57
2022-07-27T22:29:04.627Z,7.22
2022-07-27T22:31:32.141Z,6.93
2022-07-27T22:33:59.946Z,6.70
2022-07-27T22:36:27.409Z,6.80
2022-07-27T22:38:54.944Z,6.82
2022-07-27T22:41:25.309Z,6.82
2022-07-27T22:43:53.407Z,7.20
2022-07-27T22:46:26.494Z,6.95
2022-07-27T22:48:54.193Z,7.25
2022-07-27T22:51:21.992Z,6.78
2022-07-27T22:53:49.551Z,6.70
2022-07-27T22:56:17.089Z,6.88
2022-07-27T22:58:44.622Z,7.20
2022-07-27T23:01:15.899Z,6.85
2022-07-27T23:03:59.540Z,6.70
2022-07-27T23:06:27.023Z,6.90
2022-07-27T23:08:54.530Z,7.00
2022-07-27T23:11:21.966Z,7.30
2022-07-27T23:13:49.586Z,7.13
2022-07-27T23:16:17.107Z,7.25
2022-07-27T23:18:44.681Z,7.35
2022-07-27T23:21:12.140Z,6.68
2022-07-27T23:23:49.894Z,7.20
2022-07-27T23:26:22.897Z,6.72
2022-07-27T23:28:50.661Z,7.18
2022-07-27T23:31:18.256Z,7.40
2022-07-27T23:33:45.715Z,7.40
2022-07-27T23:36:13.248Z,7.15
2022-07-27T23:38:40.714Z,6.65
2022-07-27T23:41:08.367Z,6.63
2022-07-27T23:43:35.843Z,6.60
2022-07-27T23:46:03.587Z,7.22
2022-07-27T23:48:31.075Z,6.85
2022-07-27T23:50:58.579Z,6.63
2022-07-27T23:53:27.182Z,6.93
2022-07-27T23:55:54.898Z,6.68
2022-07-27T23:58:22.357Z,6.72
